createdAt,value
2019-03-11T00:00:18.650Z,0.00
2019-03-11T00:01:18.554Z,0.00
2019-03-11T00:02:18.624Z,0.00
2019-03-11T00:03:18.512Z,0.00
2019-03-11T00:04:19.276Z,0.00
2019-03-11T00:05:18.493Z,0.00
2019-03-11T00:06:18.582Z,0.00
2019-03-11T00:07:18.471Z,0.00
2019-03-11T00:08:18.563Z,0.00
2019-03-11T00:09:18.455Z,0.00
2019-03-11T00:10:18.484Z,0.00
2019-03-11T00:11:18.448Z,0.00
2019-03-11T00:12:18.490Z,0.00
2019-03-11T00:13:18.396Z,0.00
2019-03-11T00:14:18.513Z,0.00
2019-03-11T00:15:18.374Z,0.00
2019-03-11T00:16:19.487Z,0.00
2019-03-11T00:17:18.347Z,0.00
2019-03-11T00:18:18.435Z,0.00
2019-03-11T00:19:18.381Z,0.00
2019-03-11T00:20:18.439Z,0.00
2019-03-11T00:21:18.337Z,0.00
2019-03-11T00:23:19.443Z,0.00
2019-03-11T00:24:18.371Z,0.00
2019-03-11T00:25:18.325Z,0.00
2019-03-11T00:26:18.416Z,0.00
2019-03-11T00:27:18.242Z,0.00
2019-03-11T00:28:18.289Z,0.00
2019-03-11T00:29:18.226Z,0.00
2019-03-11T00:31:19.358Z,0.00
2019-03-11T00:32:18.350Z,0.00
2019-03-11T00:33:18.174Z,0.00
2019-03-11T00:34:18.233Z,0.00
2019-03-11T00:35:18.160Z,0.00
2019-03-11T00:36:18.251Z,0.00
2019-03-11T00:37:18.161Z,0.00
2019-03-11T00:38:18.181Z,0.00
2019-03-11T00:39:18.121Z,0.00
2019-03-11T00:40:18.197Z,0.00
2019-03-11T00:41:18.111Z,0.00
2019-03-11T00:42:18.319Z,0.00
2019-03-11T00:43:18.095Z,0.00
2019-03-11T00:44:18.101Z,0.00
2019-03-11T00:45:18.054Z,0.00
2019-03-11T00:46:18.110Z,0.00
2019-03-11T00:47:18.072Z,0.00
2019-03-11T00:48:18.128Z,0.00
2019-03-11T00:49:17.999Z,0.00
2019-03-11T00:50:18.040Z,0.00
2019-03-11T00:51:17.972Z,0.00
2019-03-11T00:52:18.054Z,0.00
2019-03-11T00:53:17.991Z,0.00
2019-03-11T00:54:18.067Z,0.00
2019-03-11T00:55:17.935Z,0.00
2019-03-11T00:56:17.975Z,0.00
2019-03-11T00:57:17.917Z,0.00
2019-03-11T00:58:18.024Z,0.00
2019-03-11T00:59:17.886Z,0.00
2019-03-11T01:00:18.007Z,0.00
2019-03-11T01:01:17.873Z,0.00
2019-03-11T01:02:17.926Z,0.00
2019-03-11T01:03:17.908Z,0.00
2019-03-11T01:04:17.936Z,0.00
2019-03-11T01:05:17.824Z,0.00
2019-03-11T01:06:17.864Z,0.00
2019-03-11T01:07:17.801Z,0.00
2019-03-11T01:08:17.889Z,0.00
2019-03-11T01:09:17.780Z,0.00
2019-03-11T01:10:17.872Z,0.00
2019-03-11T01:11:17.761Z,0.00
2019-03-11T01:12:17.784Z,0.00
2019-03-11T01:13:17.783Z,0.00
2019-03-11T01:14:17.797Z,0.00
2019-03-11T01:15:17.719Z,0.00
2019-03-11T01:16:17.812Z,0.00
2019-03-11T01:17:17.695Z,0.00
2019-03-11T01:18:17.751Z,0.00
2019-03-11T01:19:17.668Z,0.00
2019-03-11T01:20:17.740Z,0.00
2019-03-11T01:21:17.651Z,0.00
2019-03-11T01:22:17.748Z,0.00
2019-03-11T01:23:17.691Z,0.00
2019-03-11T01:24:17.689Z,0.00
2019-03-11T01:25:17.598Z,0.00
2019-03-11T01:26:17.673Z,0.00
2019-03-11T01:27:17.580Z,0.00
2019-03-11T01:28:17.729Z,0.00
2019-03-11T01:29:17.626Z,0.00
2019-03-11T01:30:17.605Z,0.00
2019-03-11T01:31:17.534Z,0.00
2019-03-11T01:32:17.627Z,0.00
2019-03-11T01:33:17.516Z,0.00
2019-03-11T01:34:17.659Z,0.00
2019-03-11T01:35:17.498Z,0.00
2019-03-11T01:36:17.559Z,0.00
2019-03-11T01:37:17.469Z,0.00
2019-03-11T01:38:17.558Z,0.00
2019-03-11T01:39:17.487Z,0.00
2019-03-11T01:40:17.567Z,0.00
2019-03-11T01:41:17.430Z,0.00
2019-03-11T01:42:17.490Z,0.00
2019-03-11T01:43:17.408Z,0.00
2019-03-11T01:44:17.521Z,0.00
2019-03-11T01:45:17.410Z,0.00
2019-03-11T01:46:17.425Z,0.00
2019-03-11T01:47:17.369Z,0.00
2019-03-11T01:48:17.419Z,0.00
2019-03-11T01:49:17.375Z,0.00
2019-03-11T01:50:17.431Z,0.00
2019-03-11T01:51:17.334Z,0.00
2019-03-11T01:52:17.368Z,0.00
2019-03-11T01:53:17.298Z,0.00
2019-03-11T01:54:17.389Z,0.00
2019-03-11T01:55:17.281Z,0.00
2019-03-11T01:56:17.396Z,0.00
2019-03-11T01:57:17.258Z,0.00
2019-03-11T01:58:17.284Z,0.00
2019-03-11T01:59:17.267Z,0.00
2019-03-11T02:00:17.377Z,0.00
2019-03-11T02:01:17.225Z,0.00
2019-03-11T02:02:17.310Z,0.00
2019-03-11T02:03:17.201Z,0.00
2019-03-11T02:04:17.267Z,0.00
2019-03-11T02:05:17.202Z,0.00
2019-03-11T02:06:17.235Z,0.00
2019-03-11T02:07:17.154Z,0.00
2019-03-11T02:08:17.259Z,0.00
2019-03-11T02:09:17.143Z,0.00
2019-03-11T02:10:17.195Z,0.00
2019-03-11T02:11:17.104Z,0.00
2019-03-11T02:12:17.173Z,0.00
2019-03-11T02:13:17.088Z,0.00
2019-03-11T02:14:17.190Z,0.00
2019-03-11T02:15:17.095Z,0.00
2019-03-11T02:16:17.094Z,0.00
2019-03-11T02:17:17.049Z,0.00
2019-03-11T02:18:17.118Z,0.00
2019-03-11T02:19:17.024Z,0.00
2019-03-11T02:20:17.148Z,0.00
2019-03-11T02:21:17.029Z,0.00
2019-03-11T02:22:17.056Z,0.00
2019-03-11T02:23:16.990Z,0.00
2019-03-11T02:24:17.077Z,0.00
2019-03-11T02:25:16.959Z,0.00
2019-03-11T02:26:17.099Z,0.00
2019-03-11T02:27:16.932Z,0.00
2019-03-11T02:28:16.987Z,0.00
2019-03-11T02:29:16.917Z,0.00
2019-03-11T02:30:17.036Z,0.00
2019-03-11T02:31:16.929Z,0.00
2019-03-11T02:32:17.028Z,0.00
2019-03-11T02:33:16.869Z,0.00
2019-03-11T02:34:16.923Z,0.00
2019-03-11T02:35:16.885Z,0.00
2019-03-11T02:36:16.935Z,0.00
2019-03-11T02:37:16.835Z,0.00
2019-03-11T02:38:16.996Z,0.00
2019-03-11T02:39:16.817Z,0.00
2019-03-11T02:40:16.977Z,0.00
2019-03-11T02:41:16.823Z,0.00
2019-03-11T02:42:16.991Z,0.00
2019-03-11T02:43:16.802Z,0.00
2019-03-11T02:44:16.786Z,0.00
2019-03-11T02:45:16.765Z,0.00
2019-03-11T02:46:16.840Z,0.00
2019-03-11T02:47:16.720Z,0.00
2019-03-11T02:48:16.829Z,0.00
2019-03-11T02:49:16.715Z,0.00
2019-03-11T02:50:16.746Z,0.00
2019-03-11T02:51:16.733Z,0.00
2019-03-11T02:52:16.760Z,0.00
2019-03-11T02:53:16.672Z,0.00
2019-03-11T02:54:16.758Z,0.00
2019-03-11T02:55:16.651Z,0.00
2019-03-11T02:56:16.673Z,0.00
2019-03-11T02:57:16.685Z,0.00
2019-03-11T02:58:16.705Z,0.00
2019-03-11T02:59:16.624Z,0.00
2019-03-11T03:00:16.693Z,0.00
2019-03-11T03:01:16.570Z,0.00
2019-03-11T03:02:16.637Z,0.00
2019-03-11T03:03:16.568Z,0.00
2019-03-11T03:04:16.637Z,0.00
2019-03-11T03:05:16.529Z,0.00
2019-03-11T03:06:16.666Z,0.00
2019-03-11T03:07:16.539Z,0.00
2019-03-11T03:08:16.542Z,0.00
2019-03-11T03:09:16.483Z,0.00
2019-03-11T03:10:16.554Z,0.00
2019-03-11T03:11:16.475Z,0.00
2019-03-11T03:12:16.598Z,0.00
2019-03-11T03:13:16.452Z,0.00
2019-03-11T03:14:16.500Z,0.00
2019-03-11T03:15:16.422Z,0.00
2019-03-11T03:16:16.496Z,0.00
2019-03-11T03:17:16.430Z,0.00
2019-03-11T03:18:16.511Z,0.00
2019-03-11T03:19:16.377Z,0.00
2019-03-11T03:20:16.438Z,0.00
2019-03-11T03:21:16.364Z,0.00
2019-03-11T03:22:16.465Z,0.00
2019-03-11T03:23:16.346Z,0.00
2019-03-11T03:24:16.451Z,0.00
2019-03-11T03:25:16.318Z,0.00
2019-03-11T03:26:16.365Z,0.00
2019-03-11T03:27:16.323Z,0.00
2019-03-11T03:28:16.414Z,0.00
2019-03-11T03:29:16.271Z,0.00
2019-03-11T03:30:16.397Z,0.00
2019-03-11T03:31:16.249Z,0.00
2019-03-11T03:32:16.339Z,0.00
2019-03-11T03:33:16.241Z,0.00
2019-03-11T03:34:16.322Z,0.00
2019-03-11T03:35:16.249Z,0.00
2019-03-11T03:36:16.231Z,0.00
2019-03-11T03:37:16.224Z,0.00
2019-03-11T03:38:29.797Z,0.00
2019-03-11T03:39:17.163Z,0.00
2019-03-11T03:40:16.265Z,0.00
2019-03-11T03:41:16.833Z,0.00
2019-03-11T03:42:16.162Z,0.00
2019-03-11T03:43:16.167Z,0.00
2019-03-11T03:44:16.177Z,0.00
2019-03-11T03:45:16.109Z,0.00
2019-03-11T03:46:19.035Z,0.00
2019-03-11T03:47:16.087Z,0.00
2019-03-11T03:48:16.211Z,0.00
2019-03-11T03:49:16.065Z,0.00
2019-03-11T03:50:16.113Z,0.00
2019-03-11T03:51:16.042Z,0.00
2019-03-11T03:52:16.147Z,0.00
2019-03-11T03:53:16.061Z,0.00
2019-03-11T03:54:16.048Z,0.00
2019-03-11T03:55:15.992Z,0.00
2019-03-11T03:56:16.052Z,0.00
2019-03-11T03:57:15.971Z,0.00
2019-03-11T03:58:16.108Z,0.00
2019-03-11T03:59:15.950Z,0.00
2019-03-11T04:00:15.980Z,0.00
2019-03-11T04:01:15.925Z,0.00
2019-03-11T04:02:16.000Z,0.00
2019-03-11T04:03:15.939Z,0.00
2019-03-11T04:04:16.149Z,0.00
2019-03-11T04:05:15.881Z,0.00
2019-03-11T04:06:15.916Z,0.00
2019-03-11T04:07:15.861Z,0.00
2019-03-11T04:08:15.976Z,0.00
2019-03-11T04:09:15.865Z,0.00
2019-03-11T04:10:16.102Z,0.00
2019-03-11T04:11:15.817Z,0.00
2019-03-11T04:12:15.863Z,0.00
2019-03-11T04:13:15.795Z,0.00
2019-03-11T04:14:15.922Z,0.00
2019-03-11T04:15:15.782Z,0.00
2019-03-11T04:16:15.891Z,0.00
2019-03-11T04:17:15.762Z,0.00
2019-03-11T04:18:15.810Z,0.00
2019-03-11T04:19:15.786Z,0.00
2019-03-11T04:20:15.815Z,0.00
2019-03-11T04:21:15.710Z,0.00
2019-03-11T04:22:15.847Z,0.00
2019-03-11T04:23:15.684Z,0.00
2019-03-11T04:24:15.766Z,0.00
2019-03-11T04:25:15.688Z,0.00
2019-03-11T04:26:15.769Z,0.00
2019-03-11T04:27:15.676Z,0.00
2019-03-11T04:28:15.672Z,0.00
2019-03-11T04:29:15.686Z,0.00
2019-03-11T04:30:15.679Z,0.00
2019-03-11T04:31:15.616Z,0.00
2019-03-11T04:32:15.691Z,0.00
2019-03-11T04:33:15.579Z,0.00
2019-03-11T04:34:15.612Z,0.00
2019-03-11T04:35:15.606Z,0.00
2019-03-11T04:36:15.618Z,0.00
2019-03-11T04:37:15.535Z,0.00
2019-03-11T04:38:15.627Z,0.00
2019-03-11T04:39:15.513Z,0.00
2019-03-11T04:40:15.576Z,0.00
2019-03-11T04:41:15.539Z,0.00
2019-03-11T04:42:15.569Z,0.00
2019-03-11T04:43:15.513Z,0.00
2019-03-11T04:44:15.567Z,0.00
2019-03-11T04:45:15.481Z,0.00
2019-03-11T04:46:15.478Z,0.00
2019-03-11T04:47:15.445Z,0.00
2019-03-11T04:48:15.492Z,0.00
2019-03-11T04:49:15.407Z,0.00
2019-03-11T04:50:15.553Z,0.00
2019-03-11T04:51:15.394Z,0.00
2019-03-11T04:52:15.415Z,0.00
2019-03-11T04:53:15.367Z,0.00
2019-03-11T04:54:15.438Z,0.00
2019-03-11T04:55:15.389Z,0.00
2019-03-11T04:56:15.474Z,0.00
2019-03-11T04:57:15.325Z,0.00
2019-03-11T04:58:15.361Z,0.00
2019-03-11T04:59:15.306Z,0.00
2019-03-11T05:00:15.381Z,0.00
2019-03-11T05:01:15.359Z,0.00
2019-03-11T05:02:15.392Z,0.00
2019-03-11T05:03:15.267Z,0.00
2019-03-11T05:04:15.297Z,0.00
2019-03-11T05:05:15.245Z,0.00
2019-03-11T05:06:15.354Z,0.00
2019-03-11T05:07:15.214Z,0.00
2019-03-11T05:08:15.328Z,0.00
2019-03-11T05:09:15.212Z,0.00
2019-03-11T05:10:16.496Z,0.00
2019-03-11T05:11:15.207Z,0.00
2019-03-11T05:12:15.252Z,0.00
2019-03-11T05:13:15.153Z,0.00
2019-03-11T05:14:15.266Z,0.00
2019-03-11T05:15:15.131Z,0.00
2019-03-11T05:16:15.202Z,0.00
2019-03-11T05:17:15.155Z,0.00
2019-03-11T05:18:15.189Z,0.00
2019-03-11T05:19:15.090Z,0.00
2019-03-11T05:20:15.107Z,0.00
2019-03-11T05:21:15.070Z,0.00
2019-03-11T05:22:15.157Z,0.00
2019-03-11T05:23:15.065Z,0.00
2019-03-11T05:24:15.128Z,0.00
2019-03-11T05:25:15.018Z,0.00
2019-03-11T05:26:15.077Z,0.00
2019-03-11T05:27:15.041Z,0.00
2019-03-11T05:28:15.055Z,0.00
2019-03-11T05:29:14.981Z,0.00
2019-03-11T05:30:15.075Z,0.00
2019-03-11T05:31:14.962Z,4.00
2019-03-11T05:32:15.017Z,4.00
2019-03-11T05:33:14.932Z,4.00
2019-03-11T05:34:14.998Z,4.00
2019-03-11T05:35:14.924Z,4.00
2019-03-11T05:36:15.020Z,4.00
2019-03-11T05:37:14.944Z,4.00
2019-03-11T05:38:14.922Z,4.00
2019-03-11T05:39:14.881Z,8.00
2019-03-11T05:40:14.939Z,12.00
2019-03-11T05:41:14.854Z,12.00
2019-03-11T05:42:15.082Z,12.00
2019-03-11T05:43:14.843Z,12.00
2019-03-11T05:44:14.862Z,16.00
2019-03-11T05:45:14.832Z,20.00
2019-03-11T05:46:14.884Z,24.00
2019-03-11T05:47:14.789Z,24.00
2019-03-11T05:48:14.942Z,32.00
2019-03-11T05:49:14.767Z,36.00
2019-03-11T05:50:14.795Z,40.00
2019-03-11T05:51:14.750Z,40.00
2019-03-11T05:52:14.818Z,40.00
2019-03-11T05:53:14.750Z,44.00
2019-03-11T05:54:14.823Z,40.00
2019-03-11T05:55:14.722Z,44.00
2019-03-11T05:56:14.907Z,48.00
2019-03-11T05:57:14.683Z,64.00
2019-03-11T05:58:14.780Z,76.00
2019-03-11T05:59:14.664Z,72.00
2019-03-11T06:00:14.780Z,88.00
2019-03-11T06:01:14.641Z,100.00
2019-03-11T06:02:14.673Z,104.00
2019-03-11T06:03:14.643Z,112.00
2019-03-11T06:04:14.688Z,120.00
2019-03-11T06:05:14.590Z,124.00
2019-03-11T06:06:14.719Z,128.00
2019-03-11T06:07:14.573Z,136.00
2019-03-11T06:08:14.647Z,136.00
2019-03-11T06:09:14.556Z,132.00
2019-03-11T06:10:14.632Z,140.00
2019-03-11T06:11:14.526Z,156.00
2019-03-11T06:12:14.653Z,156.00
2019-03-11T06:13:14.611Z,144.00
2019-03-11T06:14:14.558Z,164.00
2019-03-11T06:15:14.494Z,148.00
2019-03-11T06:16:14.575Z,132.00
2019-03-11T06:17:14.475Z,116.00
2019-03-11T06:18:14.618Z,76.00
2019-03-11T06:19:14.445Z,56.00
2019-03-11T06:20:14.497Z,64.00
2019-03-11T06:21:14.425Z,96.00
2019-03-11T06:22:14.514Z,88.00
2019-03-11T06:23:14.425Z,76.00
2019-03-11T06:24:14.454Z,68.00
2019-03-11T06:25:14.401Z,68.00
2019-03-11T06:26:14.435Z,80.00
2019-03-11T06:27:14.365Z,100.00
2019-03-11T06:28:14.456Z,104.00
2019-03-11T06:29:14.386Z,92.00
2019-03-11T06:30:14.357Z,100.00
2019-03-11T06:31:14.316Z,112.00
2019-03-11T06:32:14.374Z,124.00
2019-03-11T06:33:14.312Z,160.00
2019-03-11T06:34:14.418Z,320.00
2019-03-11T06:35:14.302Z,428.00
2019-03-11T06:36:14.308Z,496.00
2019-03-11T06:37:14.263Z,560.00
2019-03-11T06:38:14.317Z,696.00
2019-03-11T06:39:14.259Z,736.00
2019-03-11T06:40:14.339Z,816.00
2019-03-11T06:41:14.217Z,808.00
2019-03-11T06:42:14.239Z,836.00
2019-03-11T06:43:14.205Z,868.00
2019-03-11T06:44:14.282Z,800.00
2019-03-11T06:45:14.169Z,744.00
2019-03-11T06:46:14.268Z,580.00
2019-03-11T06:47:14.154Z,672.00
2019-03-11T06:48:14.178Z,700.00
2019-03-11T06:49:14.175Z,628.00
2019-03-11T06:50:14.189Z,644.00
2019-03-11T06:51:14.104Z,480.00
2019-03-11T06:52:14.202Z,484.00
2019-03-11T06:53:14.080Z,520.00
2019-03-11T06:54:14.118Z,552.00
2019-03-11T06:55:14.093Z,800.00
2019-03-11T06:56:14.203Z,1120.00
2019-03-11T06:57:14.037Z,1124.00
2019-03-11T06:58:14.149Z,1152.00
2019-03-11T06:59:14.041Z,1256.00
2019-03-11T07:00:14.094Z,1212.00
2019-03-11T07:01:13.994Z,1416.00
2019-03-11T07:02:14.071Z,1332.00
2019-03-11T07:03:13.974Z,1264.00
2019-03-11T07:04:14.084Z,1864.00
2019-03-11T07:05:19.931Z,2040.00
2019-03-11T07:06:15.016Z,2264.00
2019-03-11T07:07:13.929Z,2212.00
2019-03-11T07:08:14.011Z,2160.00
2019-03-11T07:09:13.995Z,1816.00
2019-03-11T07:10:13.963Z,1340.00
2019-03-11T07:11:13.886Z,1096.00
2019-03-11T07:12:13.942Z,940.00
2019-03-11T07:13:13.874Z,868.00
2019-03-11T07:14:13.953Z,840.00
2019-03-11T07:15:13.880Z,824.00
2019-03-11T07:16:13.860Z,812.00
2019-03-11T07:17:13.841Z,764.00
2019-03-11T07:18:13.874Z,712.00
2019-03-11T07:19:13.804Z,964.00
2019-03-11T07:20:13.923Z,1272.00
2019-03-11T07:21:13.821Z,1340.00
2019-03-11T07:22:14.687Z,1340.00
2019-03-11T07:23:13.761Z,1352.00
2019-03-11T07:24:13.835Z,888.00
2019-03-11T07:25:13.759Z,828.00
2019-03-11T07:26:13.880Z,872.00
2019-03-11T07:27:13.724Z,1012.00
2019-03-11T07:28:13.741Z,1548.00
2019-03-11T07:29:13.699Z,2064.00
2019-03-11T07:30:13.775Z,2280.00
2019-03-11T07:31:13.716Z,2392.00
2019-03-11T07:32:13.764Z,2480.00
2019-03-11T07:33:13.671Z,2200.00
2019-03-11T07:34:13.677Z,1916.00
2019-03-11T07:35:13.628Z,1476.00
2019-03-11T07:36:13.726Z,1168.00
2019-03-11T07:37:13.650Z,820.00
2019-03-11T07:38:13.713Z,600.00
2019-03-11T07:39:13.590Z,636.00
2019-03-11T07:40:13.622Z,752.00
2019-03-11T07:41:13.589Z,580.00
2019-03-11T07:42:13.667Z,460.00
2019-03-11T07:43:13.575Z,332.00
2019-03-11T07:44:13.688Z,320.00
2019-03-11T07:45:13.574Z,408.00
2019-03-11T07:46:13.572Z,620.00
2019-03-11T07:47:13.502Z,764.00
2019-03-11T07:48:13.599Z,1064.00
2019-03-11T07:49:13.485Z,1088.00
2019-03-11T07:50:13.593Z,1128.00
2019-03-11T07:51:13.452Z,948.00
2019-03-11T07:52:13.531Z,1140.00
2019-03-11T07:53:13.457Z,872.00
2019-03-11T07:54:13.519Z,896.00
2019-03-11T07:55:13.424Z,776.00
2019-03-11T07:56:13.425Z,580.00
2019-03-11T07:57:13.459Z,504.00
2019-03-11T07:58:13.438Z,564.00
2019-03-11T07:59:13.372Z,636.00
2019-03-11T08:00:13.460Z,592.00
2019-03-11T08:01:13.357Z,672.00
2019-03-11T08:02:13.406Z,632.00
2019-03-11T08:03:13.328Z,556.00
2019-03-11T08:04:13.410Z,428.00
2019-03-11T08:05:13.299Z,456.00
2019-03-11T08:06:18.376Z,400.00
2019-03-11T08:07:14.311Z,432.00
2019-03-11T08:08:13.332Z,460.00
2019-03-11T08:09:13.254Z,728.00
2019-03-11T08:10:13.314Z,832.00
2019-03-11T08:11:13.246Z,796.00
2019-03-11T08:12:13.364Z,572.00
2019-03-11T08:13:13.236Z,508.00
2019-03-11T08:14:13.240Z,700.00
2019-03-11T08:15:13.187Z,780.00
2019-03-11T08:16:13.254Z,1044.00
2019-03-11T08:17:13.197Z,1408.00
2019-03-11T08:18:13.276Z,2044.00
2019-03-11T08:19:13.149Z,1792.00
2019-03-11T08:20:13.183Z,1980.00
2019-03-11T08:21:13.120Z,2144.00
2019-03-11T08:22:13.224Z,1428.00
2019-03-11T08:23:13.103Z,840.00
2019-03-11T08:24:13.248Z,684.00
2019-03-11T08:25:13.080Z,512.00
2019-03-11T08:26:13.122Z,588.00
2019-03-11T08:27:13.078Z,596.00
2019-03-11T08:28:13.169Z,440.00
2019-03-11T08:29:13.057Z,408.00
2019-03-11T08:30:13.154Z,368.00
2019-03-11T08:31:13.023Z,368.00
2019-03-11T08:32:13.095Z,680.00
2019-03-11T08:33:12.993Z,996.00
2019-03-11T08:34:13.101Z,1092.00
2019-03-11T08:35:13.000Z,1192.00
2019-03-11T08:36:12.993Z,1348.00
2019-03-11T08:37:12.980Z,1652.00
2019-03-11T08:38:13.039Z,1576.00
2019-03-11T08:39:12.960Z,2036.00
2019-03-11T08:40:13.019Z,2468.00
2019-03-11T08:41:12.915Z,3036.00
2019-03-11T08:42:12.926Z,2704.00
2019-03-11T08:43:12.890Z,2540.00
2019-03-11T08:44:12.978Z,2632.00
2019-03-11T08:45:12.906Z,2444.00
2019-03-11T08:46:12.964Z,2312.00
2019-03-11T08:47:12.843Z,1792.00
2019-03-11T08:48:12.868Z,2632.00
2019-03-11T08:49:12.872Z,3104.00
2019-03-11T08:50:12.888Z,2164.00
2019-03-11T08:51:12.807Z,2448.00
2019-03-11T08:52:12.895Z,2596.00
2019-03-11T08:53:12.784Z,2088.00
2019-03-11T08:54:12.804Z,1912.00
2019-03-11T08:55:12.797Z,1840.00
2019-03-11T08:56:12.814Z,2256.00
2019-03-11T08:57:12.734Z,2428.00
2019-03-11T08:58:12.830Z,2240.00
2019-03-11T08:59:12.774Z,2316.00
2019-03-11T09:00:12.745Z,2152.00
2019-03-11T09:01:12.679Z,2188.00
2019-03-11T09:02:12.766Z,2080.00
2019-03-11T09:03:12.663Z,1556.00
2019-03-11T09:04:12.770Z,1432.00
2019-03-11T09:05:12.664Z,1844.00
2019-03-11T09:06:12.679Z,1432.00
2019-03-11T09:07:12.621Z,1284.00
2019-03-11T09:08:12.694Z,1052.00
2019-03-11T09:09:12.597Z,1192.00
2019-03-11T09:10:12.653Z,1784.00
2019-03-11T09:11:12.610Z,2084.00
2019-03-11T09:12:12.618Z,2016.00
2019-03-11T09:13:12.563Z,1908.00
2019-03-11T09:14:12.636Z,1860.00
2019-03-11T09:15:12.566Z,1428.00
2019-03-11T09:16:12.549Z,1200.00
2019-03-11T09:17:12.504Z,1624.00
2019-03-11T09:18:12.560Z,1804.00
2019-03-11T09:19:12.485Z,1924.00
2019-03-11T09:20:12.607Z,2412.00
2019-03-11T09:21:12.462Z,3232.00
2019-03-11T09:22:12.503Z,2784.00
2019-03-11T09:23:12.457Z,2804.00
2019-03-11T09:24:19.057Z,2688.00
2019-03-11T09:25:13.450Z,3016.00
2019-03-11T09:26:12.519Z,2912.00
2019-03-11T09:27:12.395Z,2756.00
2019-03-11T09:28:12.468Z,2008.00
2019-03-11T09:29:12.373Z,1476.00
2019-03-11T09:30:12.466Z,1216.00
2019-03-11T09:31:12.351Z,1104.00
2019-03-11T09:32:12.450Z,1004.00
2019-03-11T09:33:12.341Z,876.00
2019-03-11T09:34:12.364Z,744.00
2019-03-11T09:35:12.338Z,608.00
2019-03-11T09:36:12.419Z,532.00
2019-03-11T09:37:12.290Z,420.00
2019-03-11T09:38:12.393Z,648.00
2019-03-11T09:39:12.279Z,852.00
2019-03-11T09:40:12.302Z,1068.00
2019-03-11T09:41:12.263Z,1040.00
2019-03-11T09:42:12.317Z,1016.00
2019-03-11T09:43:12.217Z,1116.00
2019-03-11T09:44:12.229Z,1332.00
2019-03-11T09:45:12.202Z,1644.00
2019-03-11T09:46:12.287Z,2456.00
2019-03-11T09:47:12.166Z,2648.00
2019-03-11T09:48:12.254Z,3128.00
2019-03-11T09:49:12.150Z,2792.00
2019-03-11T09:50:12.166Z,2364.00
2019-03-11T09:51:12.161Z,2172.00
2019-03-11T09:52:12.177Z,1992.00
2019-03-11T09:53:12.132Z,3388.00
2019-03-11T09:54:12.216Z,3488.00
2019-03-11T09:55:12.081Z,3332.00
2019-03-11T09:56:12.104Z,2948.00
2019-03-11T09:57:12.102Z,2852.00
2019-03-11T09:58:12.122Z,2812.00
2019-03-11T09:59:12.038Z,2952.00
2019-03-11T10:00:12.137Z,3004.00
2019-03-11T10:01:12.043Z,2940.00
2019-03-11T10:02:12.443Z,3208.00
2019-03-11T10:03:11.996Z,3792.00
2019-03-11T10:04:12.063Z,4180.00
2019-03-11T10:05:11.979Z,4388.00
2019-03-11T10:06:12.075Z,4764.00
2019-03-11T10:07:11.976Z,4080.00
2019-03-11T10:08:11.987Z,3044.00
2019-03-11T10:09:11.927Z,1948.00
2019-03-11T10:10:12.009Z,1012.00
2019-03-11T10:11:11.938Z,836.00
2019-03-11T10:12:11.963Z,796.00
2019-03-11T10:13:11.890Z,772.00
2019-03-11T10:14:11.927Z,908.00
2019-03-11T10:15:11.860Z,960.00
2019-03-11T10:16:11.943Z,1344.00
2019-03-11T10:17:11.865Z,1660.00
2019-03-11T10:18:11.959Z,1840.00
2019-03-11T10:19:11.821Z,2092.00
2019-03-11T10:20:11.974Z,2136.00
2019-03-11T10:21:11.793Z,2164.00
2019-03-11T10:22:11.908Z,2080.00
2019-03-11T10:23:11.771Z,2116.00
2019-03-11T10:24:11.889Z,1864.00
2019-03-11T10:25:11.748Z,2424.00
2019-03-11T10:26:11.817Z,2096.00
2019-03-11T10:27:11.756Z,2080.00
2019-03-11T10:28:11.846Z,2568.00
2019-03-11T10:29:11.708Z,2472.00
2019-03-11T10:30:11.728Z,2584.00
2019-03-11T10:31:11.681Z,3176.00
2019-03-11T10:32:11.740Z,4232.00
2019-03-11T10:33:11.688Z,4936.00
2019-03-11T10:34:11.778Z,5336.00
2019-03-11T10:35:30.323Z,5748.00
2019-03-11T10:36:12.627Z,6496.00
2019-03-11T10:37:11.674Z,5700.00
2019-03-11T10:38:11.633Z,6340.00
2019-03-11T10:39:11.685Z,6460.00
2019-03-11T10:40:11.604Z,6384.00
2019-03-11T10:41:11.600Z,4908.00
2019-03-11T10:42:11.593Z,3864.00
2019-03-11T10:43:11.646Z,3428.00
2019-03-11T10:44:11.534Z,2788.00
2019-03-11T10:45:11.635Z,1628.00
2019-03-11T10:46:11.516Z,1944.00
2019-03-11T10:47:11.541Z,1336.00
2019-03-11T10:48:11.522Z,1548.00
2019-03-11T10:49:11.560Z,1712.00
2019-03-11T10:50:11.480Z,2752.00
2019-03-11T10:51:11.575Z,2700.00
2019-03-11T10:52:11.463Z,1660.00
2019-03-11T10:53:11.505Z,1212.00
2019-03-11T10:54:11.454Z,952.00
2019-03-11T10:55:11.493Z,824.00
2019-03-11T10:56:11.405Z,772.00
2019-03-11T10:57:11.506Z,772.00
2019-03-11T10:58:11.420Z,820.00
2019-03-11T10:59:11.424Z,1068.00
2019-03-11T11:00:11.364Z,1376.00
2019-03-11T11:01:11.440Z,1652.00
2019-03-11T11:02:11.343Z,2000.00
2019-03-11T11:03:11.500Z,2320.00
2019-03-11T11:04:11.318Z,2624.00
2019-03-11T11:05:11.384Z,2952.00
2019-03-11T11:06:11.346Z,3256.00
2019-03-11T11:07:11.370Z,3068.00
2019-03-11T11:08:11.314Z,4312.00
2019-03-11T11:09:11.384Z,5152.00
2019-03-11T11:10:11.265Z,4964.00
2019-03-11T11:11:11.308Z,4640.00
2019-03-11T11:12:11.228Z,4764.00
2019-03-11T11:13:11.307Z,5052.00
2019-03-11T11:14:11.250Z,5552.00
2019-03-11T11:16:12.314Z,4808.00
2019-03-11T11:17:11.247Z,5348.00
2019-03-11T11:18:11.170Z,4692.00
2019-03-11T11:19:11.286Z,4860.00
2019-03-11T11:20:11.180Z,3728.00
2019-03-11T11:21:11.162Z,3476.00
2019-03-11T11:22:11.128Z,2976.00
2019-03-11T11:23:11.176Z,3744.00
2019-03-11T11:24:11.147Z,3184.00
2019-03-11T11:25:11.190Z,3224.00
2019-03-11T11:26:11.104Z,2756.00
2019-03-11T11:27:11.114Z,2848.00
2019-03-11T11:28:11.072Z,3496.00
2019-03-11T11:29:11.151Z,2476.00
2019-03-11T11:30:11.039Z,2216.00
2019-03-11T11:31:11.128Z,2200.00
2019-03-11T11:32:11.026Z,1856.00
2019-03-11T11:33:11.051Z,2012.00
2019-03-11T11:34:10.989Z,2392.00
2019-03-11T11:35:11.085Z,2648.00
2019-03-11T11:36:10.992Z,2880.00
2019-03-11T11:37:11.073Z,2612.00
2019-03-11T11:38:10.960Z,2032.00
2019-03-11T11:39:10.974Z,1556.00
2019-03-11T11:40:10.947Z,1260.00
2019-03-11T11:41:10.995Z,1116.00
2019-03-11T11:42:10.906Z,692.00
2019-03-11T11:43:11.008Z,552.00
2019-03-11T11:44:10.945Z,452.00
2019-03-11T11:45:10.962Z,384.00
2019-03-11T11:46:10.875Z,600.00
2019-03-11T11:47:10.942Z,944.00
2019-03-11T11:48:10.842Z,1500.00
2019-03-11T11:49:10.951Z,3320.00
2019-03-11T11:50:11.023Z,2624.00
2019-03-11T11:51:10.865Z,2268.00
2019-03-11T11:52:10.794Z,2976.00
2019-03-11T11:53:10.972Z,3816.00
2019-03-11T11:54:10.770Z,3688.00
2019-03-11T11:55:10.812Z,3412.00
2019-03-11T11:56:10.825Z,3160.00
2019-03-11T11:57:10.805Z,2976.00
2019-03-11T11:58:10.725Z,3004.00
2019-03-11T11:59:10.820Z,2948.00
2019-03-11T12:00:10.709Z,2888.00
2019-03-11T12:01:10.761Z,2728.00
2019-03-11T12:02:10.686Z,2840.00
2019-03-11T12:03:10.745Z,2908.00
2019-03-11T12:04:10.658Z,3212.00
2019-03-11T12:05:10.753Z,4084.00
2019-03-11T12:06:10.680Z,4996.00
2019-03-11T12:07:10.663Z,6068.00
2019-03-11T12:08:10.660Z,6324.00
2019-03-11T12:09:10.695Z,8088.00
2019-03-11T12:10:10.606Z,7540.00
2019-03-11T12:11:10.729Z,6772.00
2019-03-11T12:12:10.576Z,6408.00
2019-03-11T12:13:10.616Z,5736.00
2019-03-11T12:14:10.561Z,6300.00
2019-03-11T12:16:11.681Z,5272.00
2019-03-11T12:18:11.640Z,2360.00
2019-03-11T12:19:10.537Z,2848.00
2019-03-11T12:20:10.492Z,3576.00
2019-03-11T12:21:10.583Z,3484.00
2019-03-11T12:22:10.463Z,2796.00
2019-03-11T12:23:10.567Z,2964.00
2019-03-11T12:24:10.452Z,3508.00
2019-03-11T12:25:10.512Z,3572.00
2019-03-11T12:26:10.449Z,3248.00
2019-03-11T12:27:10.500Z,3372.00
2019-03-11T12:28:10.400Z,2976.00
2019-03-11T12:29:10.532Z,2900.00
2019-03-11T12:30:10.383Z,2848.00
2019-03-11T12:31:11.490Z,2648.00
2019-03-11T12:32:10.352Z,2248.00
2019-03-11T12:33:10.432Z,1768.00
2019-03-11T12:34:10.338Z,2156.00
2019-03-11T12:35:10.348Z,3256.00
2019-03-11T12:36:10.358Z,2356.00
2019-03-11T12:37:10.458Z,2300.00
2019-03-11T12:38:10.295Z,2356.00
2019-03-11T12:39:10.401Z,2492.00
2019-03-11T12:40:10.262Z,3664.00
2019-03-11T12:41:10.302Z,4156.00
2019-03-11T12:42:10.283Z,3940.00
2019-03-11T12:43:10.323Z,2772.00
2019-03-11T12:44:10.237Z,2100.00
2019-03-11T12:46:11.333Z,3092.00
2019-03-11T12:47:10.268Z,2612.00
2019-03-11T12:48:10.175Z,2728.00